Yukikaze — JD2438 — position and weather

sailwx.info

Track history (hours):
 
Tides and Currents Weather Stations Pressure Air Temp Water Temp Dewpoint Dewpoint Depression Visibility Wind Speed Wind Dir Waves Ship Positions

Yukikaze

Last reported at 2018-Jun-17 00:46 UTC. Time now 2018-Jun-19 02:42 UTC.
Position N 35°29' E 139°40'.

Length 26 m.

MMSI: 431000229.

Date/timePositionNaut miles runAvg speedWind from/ knotsBaromVisibWave heightAir tempDewpointWater temp
2018-Jun-17 00:46N 35°29' E 139°40'2 8.5
2018-Jun-17 00:31N 35°28' E 139°42'4 8.5
2018-Jun-17 00:00N 35°31' E 139°46'1 2.4
2018-Jun-16 23:30N 35°30' E 139°45'0 0.3
2018-Jun-16 23:00N 35°30' E 139°45'0 0.5
2018-Jun-16 22:30N 35°30' E 139°45'0 0.3
2018-Jun-16 22:00N 35°30' E 139°45'0 0.1
2018-Jun-16 21:30N 35°30' E 139°45'0 0.4
2018-Jun-16 21:00N 35°30' E 139°45'0 0.2
2018-Jun-16 20:30N 35°30' E 139°45'0 0.1
2018-Jun-16 20:00N 35°30' E 139°45'0 0.4
2018-Jun-16 19:30N 35°30' E 139°45'0 0.4
2018-Jun-16 19:00N 35°30' E 139°45'0 0.4
2018-Jun-16 18:30N 35°30' E 139°45'0 0.2
2018-Jun-16 18:00N 35°30' E 139°45'0 0.1
2018-Jun-16 17:30N 35°30' E 139°45'0 0.1
2018-Jun-16 17:00N 35°30' E 139°45'0 0.4
2018-Jun-16 16:30N 35°30' E 139°45'0 0.1
2018-Jun-16 16:00N 35°30' E 139°45'0 0.1
2018-Jun-16 15:30N 35°30' E 139°45'0 0.2
2018-Jun-16 15:00N 35°30' E 139°45'0 0.1
2018-Jun-16 14:30N 35°30' E 139°45'0 0.0
2018-Jun-16 14:01N 35°30' E 139°45'0 0.0
2018-Jun-16 13:30N 35°30' E 139°45'0 0.1
2018-Jun-16 13:00N 35°30' E 139°45'0 0.2
2018-Jun-16 12:30N 35°30' E 139°45'0 0.4
2018-Jun-16 12:00N 35°30' E 139°45'0 0.1
2018-Jun-16 11:30N 35°30' E 139°45'0 0.1
2018-Jun-16 11:00N 35°30' E 139°45'0 0.1
2018-Jun-16 10:30N 35°30' E 139°45'0 0.2
2018-Jun-16 10:00N 35°30' E 139°45'0 0.4
2018-Jun-16 09:30N 35°30' E 139°45'0 0.1
2018-Jun-16 08:59N 35°30' E 139°45'0 0.2
2018-Jun-16 08:30N 35°30' E 139°45'0 0.4
2018-Jun-16 08:00N 35°30' E 139°45'0 0.3
2018-Jun-16 07:31N 35°30' E 139°45'0 0.1
2018-Jun-16 06:58N 35°30' E 139°45'0 0.2
2018-Jun-16 06:30N 35°30' E 139°45'0 0.4
2018-Jun-16 06:01N 35°30' E 139°45'0 0.1
2018-Jun-16 05:30N 35°30' E 139°45'0 0.2
2018-Jun-16 05:00N 35°30' E 139°45'0 0.2
2018-Jun-16 04:30N 35°30' E 139°45'0 0.1
2018-Jun-16 04:00N 35°30' E 139°45'0 0.2
2018-Jun-16 03:30N 35°30' E 139°45'0 0.3
2018-Jun-16 03:00N 35°30' E 139°45'0 0.3
2018-Jun-16 02:30N 35°30' E 139°45'0 0.4
2018-Jun-16 02:00N 35°30' E 139°45'0 0.0
2018-Jun-16 01:31N 35°30' E 139°45'0 0.9
2018-Jun-16 01:00N 35°30' E 139°45'3 5.7
2018-Jun-16 00:29N 35°28' E 139°43'3 7.2
2018-Jun-16 00:00N 35°28' E 139°47'0 0.6
2018-Jun-15 23:31N 35°27' E 139°47'510.8
2018-Jun-15 23:00N 35°28' E 139°40'0 1.0
2018-Jun-15 22:30N 35°29' E 139°40'0 0.0
2018-Jun-15 05:34N 35°29' E 139°40'0 6.1
2018-Jun-15 05:30N 35°29' E 139°40'5 9.6
2018-Jun-15 05:01N 35°30' E 139°46'0 0.9
2018-Jun-15 04:30N 35°31' E 139°46'0 0.1
2018-Jun-15 04:00N 35°31' E 139°46'0 0.4
2018-Jun-15 03:30N 35°31' E 139°46'0 0.0
2018-Jun-15 02:59N 35°31' E 139°46'0 0.0
2018-Jun-15 02:30N 35°31' E 139°46'0 0.0
2018-Jun-14 05:08N 35°31' E 139°46'0 0.0
2018-Jun-14 05:00N 35°31' E 139°46'0 0.3
2018-Jun-14 04:30N 35°31' E 139°46'0 0.1
2018-Jun-14 04:01N 35°31' E 139°46'0 0.2
2018-Jun-14 03:30N 35°31' E 139°46'0 0.5
2018-Jun-14 03:00N 35°31' E 139°46'0 0.2
2018-Jun-14 02:29N 35°31' E 139°46'1 1.1
2018-Jun-14 02:00N 35°31' E 139°46'3 6.3
2018-Jun-14 01:30N 35°28' E 139°48'3 5.1
2018-Jun-14 01:01N 35°28' E 139°45'4 7.8
2018-Jun-14 00:30N 35°29' E 139°40'0 0.1
2018-Jun-14 00:00N 35°29' E 139°40'0 0.0
2018-Jun-13 00:50N 35°29' E 139°40'3 9.5
2018-Jun-13 00:31N 35°27' E 139°43'4 7.2
2018-Jun-13 00:00N 35°30' E 139°46'1 1.9
2018-Jun-12 23:30N 35°30' E 139°45'0 0.2
2018-Jun-12 23:00N 35°30' E 139°45'0 0.1
2018-Jun-12 22:31N 35°30' E 139°45'0 0.1
2018-Jun-12 22:00N 35°30' E 139°45'0 0.1
2018-Jun-12 21:30N 35°30' E 139°45'0 0.2
2018-Jun-12 21:01N 35°30' E 139°45'0 0.1
2018-Jun-12 20:31N 35°30' E 139°45'0 0.2
2018-Jun-12 20:00N 35°30' E 139°45'0 0.1
2018-Jun-12 19:30N 35°30' E 139°45'0 0.1
2018-Jun-12 19:00N 35°30' E 139°45'0 0.2
2018-Jun-12 18:30N 35°30' E 139°45'0 0.2
2018-Jun-12 18:01N 35°30' E 139°45'0 0.1
2018-Jun-12 17:31N 35°30' E 139°45'0 0.0
2018-Jun-12 17:01N 35°30' E 139°45'0 0.1
2018-Jun-12 16:31N 35°30' E 139°45'0 0.0
2018-Jun-12 16:01N 35°30' E 139°45'0 0.1
2018-Jun-12 15:30N 35°30' E 139°45'0 0.1
2018-Jun-12 15:01N 35°30' E 139°45'0 0.0
2018-Jun-12 14:31N 35°30' E 139°45'0 0.0
2018-Jun-12 14:01N 35°30' E 139°45'0 0.1
2018-Jun-12 13:31N 35°30' E 139°45'0 0.1
2018-Jun-12 13:00N 35°30' E 139°45'0 0.2
2018-Jun-12 12:31N 35°30' E 139°45'0 0.1
2018-Jun-12 12:01N 35°30' E 139°45'0 0.2
2018-Jun-12 11:30N 35°30' E 139°45'0 0.4
2018-Jun-12 11:00N 35°30' E 139°45'0 0.1
2018-Jun-12 10:30N 35°30' E 139°45'0 0.1
2018-Jun-12 10:00N 35°30' E 139°45'0 0.1
2018-Jun-12 09:30N 35°30' E 139°45'0 0.1
2018-Jun-12 09:00N 35°30' E 139°45'0 0.1
2018-Jun-12 08:31N 35°30' E 139°45'0 0.1
2018-Jun-12 08:00N 35°30' E 139°45'0 0.1
2018-Jun-12 07:31N 35°30' E 139°45'0 0.1
2018-Jun-12 07:00N 35°30' E 139°45'0 0.1
2018-Jun-12 06:28N 35°30' E 139°45'0 0.1
2018-Jun-12 05:58N 35°30' E 139°45'0 0.7
2018-Jun-12 05:31N 35°30' E 139°45'0 0.9
2018-Jun-12 05:00N 35°30' E 139°45'1 1.7
2018-Jun-12 04:31N 35°31' E 139°46'0 0.9
2018-Jun-12 04:01N 35°31' E 139°46'0 0.1
2018-Jun-12 03:29N 35°31' E 139°46'0 0.0
2018-Jun-12 03:01N 35°31' E 139°46'0 0.0
2018-Jun-11 03:59N 35°31' E 139°46'0 0.1
2018-Jun-11 03:30N 35°31' E 139°46'0 0.6
2018-Jun-11 02:59N 35°32' E 139°46'0 0.0
2018-Jun-11 02:29N 35°32' E 139°46'0 0.5
2018-Jun-11 01:58N 35°31' E 139°46'2 4.5
2018-Jun-11 01:30N 35°30' E 139°48'3 6.4
2018-Jun-11 01:00N 35°27' E 139°47'4 9.0
2018-Jun-11 00:30N 35°28' E 139°42'2 3.0
2018-Jun-10 23:59N 35°29' E 139°40'0 0.0
2018-Jun-10 23:31N 35°29' E 139°40'0 0.0
2018-Jun-09 04:05N 35°29' E 139°40'0 5.8
2018-Jun-09 04:01N 35°29' E 139°40'714.3
2018-Jun-09 03:31N 35°21' E 139°41'1016.0
2018-Jun-09 02:55N 35°13' E 139°46'4 9.1
2018-Jun-09 02:30N 35°16' E 139°45'611.3
2018-Jun-09 02:00N 35°21' E 139°42'3 6.6
2018-Jun-09 01:30N 35°25' E 139°43'3 6.9
2018-Jun-09 01:00N 35°27' E 139°41'2 3.7
2018-Jun-09 00:30N 35°29' E 139°40'0 0.0
2018-Jun-09 00:00N 35°29' E 139°40'0 0.0
2018-Jun-08 23:30N 35°29' E 139°40'  
Track history (hours):
 
Tides and Currents Weather Stations Pressure Air Temp Water Temp Dewpoint Dewpoint Depression Visibility Wind Speed Wind Dir Waves Ship Positions

Yukikaze

Last reported at 2018-Jun-17 00:46 UTC. Time now 2018-Jun-19 02:42 UTC.
Position N 35°29' E 139°40'.

Length 26 m.

MMSI: 431000229.

Date/timePositionNaut miles runAvg speedWind from/ knotsBaromVisibWave heightAir tempDewpointWater temp
2018-Jun-17 00:46N 35°29' E 139°40'2 8.5
2018-Jun-17 00:31N 35°28' E 139°42'4 8.5
2018-Jun-17 00:00N 35°31' E 139°46'1 2.4
2018-Jun-16 23:30N 35°30' E 139°45'0 0.3
2018-Jun-16 23:00N 35°30' E 139°45'0 0.5
2018-Jun-16 22:30N 35°30' E 139°45'0 0.3
2018-Jun-16 22:00N 35°30' E 139°45'0 0.1
2018-Jun-16 21:30N 35°30' E 139°45'0 0.4
2018-Jun-16 21:00N 35°30' E 139°45'0 0.2
2018-Jun-16 20:30N 35°30' E 139°45'0 0.1
2018-Jun-16 20:00N 35°30' E 139°45'0 0.4
2018-Jun-16 19:30N 35°30' E 139°45'0 0.4
2018-Jun-16 19:00N 35°30' E 139°45'0 0.4
2018-Jun-16 18:30N 35°30' E 139°45'0 0.2
2018-Jun-16 18:00N 35°30' E 139°45'0 0.1
2018-Jun-16 17:30N 35°30' E 139°45'0 0.1
2018-Jun-16 17:00N 35°30' E 139°45'0 0.4
2018-Jun-16 16:30N 35°30' E 139°45'0 0.1
2018-Jun-16 16:00N 35°30' E 139°45'0 0.1
2018-Jun-16 15:30N 35°30' E 139°45'0 0.2
2018-Jun-16 15:00N 35°30' E 139°45'0 0.1
2018-Jun-16 14:30N 35°30' E 139°45'0 0.0
2018-Jun-16 14:01N 35°30' E 139°45'0 0.0
2018-Jun-16 13:30N 35°30' E 139°45'0 0.1
2018-Jun-16 13:00N 35°30' E 139°45'0 0.2
2018-Jun-16 12:30N 35°30' E 139°45'0 0.4
2018-Jun-16 12:00N 35°30' E 139°45'0 0.1
2018-Jun-16 11:30N 35°30' E 139°45'0 0.1
2018-Jun-16 11:00N 35°30' E 139°45'0 0.1
2018-Jun-16 10:30N 35°30' E 139°45'0 0.2
2018-Jun-16 10:00N 35°30' E 139°45'0 0.4
2018-Jun-16 09:30N 35°30' E 139°45'0 0.1
2018-Jun-16 08:59N 35°30' E 139°45'0 0.2
2018-Jun-16 08:30N 35°30' E 139°45'0 0.4
2018-Jun-16 08:00N 35°30' E 139°45'0 0.3
2018-Jun-16 07:31N 35°30' E 139°45'0 0.1
2018-Jun-16 06:58N 35°30' E 139°45'0 0.2
2018-Jun-16 06:30N 35°30' E 139°45'0 0.4
2018-Jun-16 06:01N 35°30' E 139°45'0 0.1
2018-Jun-16 05:30N 35°30' E 139°45'0 0.2
2018-Jun-16 05:00N 35°30' E 139°45'0 0.2
2018-Jun-16 04:30N 35°30' E 139°45'0 0.1
2018-Jun-16 04:00N 35°30' E 139°45'0 0.2
2018-Jun-16 03:30N 35°30' E 139°45'0 0.3
2018-Jun-16 03:00N 35°30' E 139°45'0 0.3
2018-Jun-16 02:30N 35°30' E 139°45'0 0.4
2018-Jun-16 02:00N 35°30' E 139°45'0 0.0
2018-Jun-16 01:31N 35°30' E 139°45'0 0.9
2018-Jun-16 01:00N 35°30' E 139°45'3 5.7
2018-Jun-16 00:29N 35°28' E 139°43'3 7.2
2018-Jun-16 00:00N 35°28' E 139°47'0 0.6
2018-Jun-15 23:31N 35°27' E 139°47'510.8
2018-Jun-15 23:00N 35°28' E 139°40'0 1.0
2018-Jun-15 22:30N 35°29' E 139°40'0 0.0
2018-Jun-15 05:34N 35°29' E 139°40'0 6.1
2018-Jun-15 05:30N 35°29' E 139°40'5 9.6
2018-Jun-15 05:01N 35°30' E 139°46'0 0.9
2018-Jun-15 04:30N 35°31' E 139°46'0 0.1
2018-Jun-15 04:00N 35°31' E 139°46'0 0.4
2018-Jun-15 03:30N 35°31' E 139°46'0 0.0
2018-Jun-15 02:59N 35°31' E 139°46'0 0.0
2018-Jun-15 02:30N 35°31' E 139°46'0 0.0
2018-Jun-14 05:08N 35°31' E 139°46'0 0.0
2018-Jun-14 05:00N 35°31' E 139°46'0 0.3
2018-Jun-14 04:30N 35°31' E 139°46'0 0.1
2018-Jun-14 04:01N 35°31' E 139°46'0 0.2
2018-Jun-14 03:30N 35°31' E 139°46'0 0.5
2018-Jun-14 03:00N 35°31' E 139°46'0 0.2
2018-Jun-14 02:29N 35°31' E 139°46'1 1.1
2018-Jun-14 02:00N 35°31' E 139°46'3 6.3
2018-Jun-14 01:30N 35°28' E 139°48'3 5.1
2018-Jun-14 01:01N 35°28' E 139°45'4 7.8
2018-Jun-14 00:30N 35°29' E 139°40'0 0.1
2018-Jun-14 00:00N 35°29' E 139°40'0 0.0
2018-Jun-13 00:50N 35°29' E 139°40'3 9.5
2018-Jun-13 00:31N 35°27' E 139°43'4 7.2
2018-Jun-13 00:00N 35°30' E 139°46'1 1.9
2018-Jun-12 23:30N 35°30' E 139°45'0 0.2
2018-Jun-12 23:00N 35°30' E 139°45'0 0.1
2018-Jun-12 22:31N 35°30' E 139°45'0 0.1
2018-Jun-12 22:00N 35°30' E 139°45'0 0.1
2018-Jun-12 21:30N 35°30' E 139°45'0 0.2
2018-Jun-12 21:01N 35°30' E 139°45'0 0.1
2018-Jun-12 20:31N 35°30' E 139°45'0 0.2
2018-Jun-12 20:00N 35°30' E 139°45'0 0.1
2018-Jun-12 19:30N 35°30' E 139°45'0 0.1
2018-Jun-12 19:00N 35°30' E 139°45'0 0.2
2018-Jun-12 18:30N 35°30' E 139°45'0 0.2
2018-Jun-12 18:01N 35°30' E 139°45'0 0.1
2018-Jun-12 17:31N 35°30' E 139°45'0 0.0
2018-Jun-12 17:01N 35°30' E 139°45'0 0.1
2018-Jun-12 16:31N 35°30' E 139°45'0 0.0
2018-Jun-12 16:01N 35°30' E 139°45'0 0.1
2018-Jun-12 15:30N 35°30' E 139°45'0 0.1
2018-Jun-12 15:01N 35°30' E 139°45'0 0.0
2018-Jun-12 14:31N 35°30' E 139°45'0 0.0
2018-Jun-12 14:01N 35°30' E 139°45'0 0.1
2018-Jun-12 13:31N 35°30' E 139°45'0 0.1
2018-Jun-12 13:00N 35°30' E 139°45'0 0.2
2018-Jun-12 12:31N 35°30' E 139°45'0 0.1
2018-Jun-12 12:01N 35°30' E 139°45'0 0.2
2018-Jun-12 11:30N 35°30' E 139°45'0 0.4
2018-Jun-12 11:00N 35°30' E 139°45'0 0.1
2018-Jun-12 10:30N 35°30' E 139°45'0 0.1
2018-Jun-12 10:00N 35°30' E 139°45'0 0.1
2018-Jun-12 09:30N 35°30' E 139°45'0 0.1
2018-Jun-12 09:00N 35°30' E 139°45'0 0.1
2018-Jun-12 08:31N 35°30' E 139°45'0 0.1
2018-Jun-12 08:00N 35°30' E 139°45'0 0.1
2018-Jun-12 07:31N 35°30' E 139°45'0 0.1
2018-Jun-12 07:00N 35°30' E 139°45'0 0.1
2018-Jun-12 06:28N 35°30' E 139°45'0 0.1
2018-Jun-12 05:58N 35°30' E 139°45'0 0.7
2018-Jun-12 05:31N 35°30' E 139°45'0 0.9
2018-Jun-12 05:00N 35°30' E 139°45'1 1.7
2018-Jun-12 04:31N 35°31' E 139°46'0 0.9
2018-Jun-12 04:01N 35°31' E 139°46'0 0.1
2018-Jun-12 03:29N 35°31' E 139°46'0 0.0
2018-Jun-12 03:01N 35°31' E 139°46'0 0.0
2018-Jun-11 03:59N 35°31' E 139°46'0 0.1
2018-Jun-11 03:30N 35°31' E 139°46'0 0.6
2018-Jun-11 02:59N 35°32' E 139°46'0 0.0
2018-Jun-11 02:29N 35°32' E 139°46'0 0.5
2018-Jun-11 01:58N 35°31' E 139°46'2 4.5
2018-Jun-11 01:30N 35°30' E 139°48'3 6.4
2018-Jun-11 01:00N 35°27' E 139°47'4 9.0
2018-Jun-11 00:30N 35°28' E 139°42'2 3.0
2018-Jun-10 23:59N 35°29' E 139°40'0 0.0
2018-Jun-10 23:31N 35°29' E 139°40'0 0.0
2018-Jun-09 04:05N 35°29' E 139°40'0 5.8
2018-Jun-09 04:01N 35°29' E 139°40'714.3
2018-Jun-09 03:31N 35°21' E 139°41'1016.0
2018-Jun-09 02:55N 35°13' E 139°46'4 9.1
2018-Jun-09 02:30N 35°16' E 139°45'611.3
2018-Jun-09 02:00N 35°21' E 139°42'3 6.6
2018-Jun-09 01:30N 35°25' E 139°43'3 6.9
2018-Jun-09 01:00N 35°27' E 139°41'2 3.7
2018-Jun-09 00:30N 35°29' E 139°40'0 0.0
2018-Jun-09 00:00N 35°29' E 139°40'0 0.0
2018-Jun-08 23:30N 35°29' E 139°40'  

Dump ship's entire track history